sensor_id;sensor_type;location;lat;lon;timestamp;temperature;humidity
2226;DHT22;1119;48.288;8.726;2023-06-14T00:00:10;18.30;43.40
2226;DHT22;1119;48.288;8.726;2023-06-14T00:02:59;18.30;43.20
2226;DHT22;1119;48.288;8.726;2023-06-14T00:05:46;18.30;42.90
2226;DHT22;1119;48.288;8.726;2023-06-14T00:08:34;18.20;43.00
2226;DHT22;1119;48.288;8.726;2023-06-14T00:11:23;18.20;42.70
2226;DHT22;1119;48.288;8.726;2023-06-14T00:14:12;18.10;42.70
2226;DHT22;1119;48.288;8.726;2023-06-14T00:17:00;18.10;43.40
2226;DHT22;1119;48.288;8.726;2023-06-14T00:19:48;18.10;44.20
2226;DHT22;1119;48.288;8.726;2023-06-14T00:22:36;18.00;43.60
2226;DHT22;1119;48.288;8.726;2023-06-14T00:25:24;17.90;43.30
2226;DHT22;1119;48.288;8.726;2023-06-14T00:28:14;17.80;43.70
2226;DHT22;1119;48.288;8.726;2023-06-14T00:31:03;17.70;43.60
2226;DHT22;1119;48.288;8.726;2023-06-14T00:33:51;17.70;43.60
2226;DHT22;1119;48.288;8.726;2023-06-14T00:36:39;17.70;43.70
2226;DHT22;1119;48.288;8.726;2023-06-14T00:39:26;17.60;43.60
2226;DHT22;1119;48.288;8.726;2023-06-14T00:42:23;17.60;43.60
2226;DHT22;1119;48.288;8.726;2023-06-14T00:45:13;17.60;43.80
2226;DHT22;1119;48.288;8.726;2023-06-14T00:48:01;17.50;44.70
2226;DHT22;1119;48.288;8.726;2023-06-14T00:50:50;17.30;45.10
2226;DHT22;1119;48.288;8.726;2023-06-14T00:53:39;17.20;45.80
2226;DHT22;1119;48.288;8.726;2023-06-14T00:56:32;17.00;46.00
2226;DHT22;1119;48.288;8.726;2023-06-14T00:59:19;16.80;46.50
2226;DHT22;1119;48.288;8.726;2023-06-14T01:02:08;16.70;47.00
2226;DHT22;1119;48.288;8.726;2023-06-14T01:05:16;16.70;47.00
2226;DHT22;1119;48.288;8.726;2023-06-14T01:08:14;16.60;46.90
2226;DHT22;1119;48.288;8.726;2023-06-14T01:11:13;16.50;46.70
2226;DHT22;1119;48.288;8.726;2023-06-14T01:14:07;16.50;46.70
2226;DHT22;1119;48.288;8.726;2023-06-14T01:16:55;16.50;46.70
2226;DHT22;1119;48.288;8.726;2023-06-14T01:19:47;16.50;46.90
2226;DHT22;1119;48.288;8.726;2023-06-14T01:22:35;16.50;47.00
2226;DHT22;1119;48.288;8.726;2023-06-14T01:25:24;16.40;47.30
2226;DHT22;1119;48.288;8.726;2023-06-14T01:28:15;16.40;47.50
2226;DHT22;1119;48.288;8.726;2023-06-14T01:31:03;16.40;47.80
2226;DHT22;1119;48.288;8.726;2023-06-14T01:33:53;16.30;47.80
2226;DHT22;1119;48.288;8.726;2023-06-14T01:36:44;16.30;47.50
2226;DHT22;1119;48.288;8.726;2023-06-14T01:39:32;16.20;48.30
2226;DHT22;1119;48.288;8.726;2023-06-14T01:42:23;16.10;48.30
2226;DHT22;1119;48.288;8.726;2023-06-14T01:45:11;16.10;47.90
2226;DHT22;1119;48.288;8.726;2023-06-14T01:48:00;16.20;47.70
2226;DHT22;1119;48.288;8.726;2023-06-14T01:50:48;16.20;47.70
2226;DHT22;1119;48.288;8.726;2023-06-14T01:53:36;16.20;47.60
2226;DHT22;1119;48.288;8.726;2023-06-14T01:56:24;16.20;47.30
2226;DHT22;1119;48.288;8.726;2023-06-14T01:59:14;16.40;47.40
2226;DHT22;1119;48.288;8.726;2023-06-14T02:02:03;16.20;47.30
2226;DHT22;1119;48.288;8.726;2023-06-14T02:04:52;16.10;47.30
2226;DHT22;1119;48.288;8.726;2023-06-14T02:07:43;16.20;47.20
2226;DHT22;1119;48.288;8.726;2023-06-14T02:10:31;16.20;47.00
2226;DHT22;1119;48.288;8.726;2023-06-14T02:13:18;16.20;46.90
2226;DHT22;1119;48.288;8.726;2023-06-14T02:16:07;16.20;46.70
2226;DHT22;1119;48.288;8.726;2023-06-14T02:18:55;16.20;46.70
2226;DHT22;1119;48.288;8.726;2023-06-14T02:21:44;16.20;46.70
2226;DHT22;1119;48.288;8.726;2023-06-14T02:24:32;16.20;46.60
2226;DHT22;1119;48.288;8.726;2023-06-14T02:27:20;16.30;47.10
2226;DHT22;1119;48.288;8.726;2023-06-14T02:30:08;16.30;46.60
2226;DHT22;1119;48.288;8.726;2023-06-14T02:32:58;16.30;46.50
2226;DHT22;1119;48.288;8.726;2023-06-14T02:35:46;16.30;46.50
2226;DHT22;1119;48.288;8.726;2023-06-14T02:38:34;16.30;47.00
2226;DHT22;1119;48.288;8.726;2023-06-14T02:41:21;16.30;47.20
2226;DHT22;1119;48.288;8.726;2023-06-14T02:44:10;16.30;47.10
2226;DHT22;1119;48.288;8.726;2023-06-14T02:46:58;16.30;47.00
2226;DHT22;1119;48.288;8.726;2023-06-14T02:49:48;16.20;46.80
2226;DHT22;1119;48.288;8.726;2023-06-14T02:52:36;16.20;46.70
2226;DHT22;1119;48.288;8.726;2023-06-14T02:55:24;16.20;46.80
2226;DHT22;1119;48.288;8.726;2023-06-14T02:58:12;16.10;47.10
2226;DHT22;1119;48.288;8.726;2023-06-14T03:01:00;16.20;47.40
2226;DHT22;1119;48.288;8.726;2023-06-14T03:03:50;16.10;47.50
2226;DHT22;1119;48.288;8.726;2023-06-14T03:06:39;16.10;47.70
2226;DHT22;1119;48.288;8.726;2023-06-14T03:09:27;16.00;47.40
2226;DHT22;1119;48.288;8.726;2023-06-14T03:12:16;15.90;48.00
2226;DHT22;1119;48.288;8.726;2023-06-14T03:15:04;15.90;47.90
2226;DHT22;1119;48.288;8.726;2023-06-14T03:17:57;15.90;47.90
2226;DHT22;1119;48.288;8.726;2023-06-14T03:20:45;15.80;47.80
2226;DHT22;1119;48.288;8.726;2023-06-14T03:23:34;15.80;48.00
2226;DHT22;1119;48.288;8.726;2023-06-14T03:26:24;15.70;48.00
2226;DHT22;1119;48.288;8.726;2023-06-14T03:29:14;15.70;48.00
2226;DHT22;1119;48.288;8.726;2023-06-14T03:32:03;15.80;48.20
2226;DHT22;1119;48.288;8.726;2023-06-14T03:35:00;15.80;48.20
2226;DHT22;1119;48.288;8.726;2023-06-14T03:37:49;15.80;48.10
2226;DHT22;1119;48.288;8.726;2023-06-14T03:40:38;15.80;48.00
2226;DHT22;1119;48.288;8.726;2023-06-14T03:43:27;15.80;48.00
2226;DHT22;1119;48.288;8.726;2023-06-14T03:46:16;15.80;48.10
2226;DHT22;1119;48.288;8.726;2023-06-14T03:49:03;15.80;48.10
2226;DHT22;1119;48.288;8.726;2023-06-14T03:51:54;15.90;48.10
2226;DHT22;1119;48.288;8.726;2023-06-14T03:54:43;16.00;48.20
2226;DHT22;1119;48.288;8.726;2023-06-14T03:57:35;15.90;48.00
2226;DHT22;1119;48.288;8.726;2023-06-14T04:00:27;16.00;48.00
2226;DHT22;1119;48.288;8.726;2023-06-14T04:03:15;16.10;48.20
2226;DHT22;1119;48.288;8.726;2023-06-14T04:06:03;16.10;48.20
2226;DHT22;1119;48.288;8.726;2023-06-14T04:08:52;16.20;48.50
2226;DHT22;1119;48.288;8.726;2023-06-14T04:11:39;16.20;49.00
2226;DHT22;1119;48.288;8.726;2023-06-14T04:14:28;16.30;49.90
2226;DHT22;1119;48.288;8.726;2023-06-14T04:17:17;16.30;50.80
2226;DHT22;1119;48.288;8.726;2023-06-14T04:20:06;16.20;49.20
2226;DHT22;1119;48.288;8.726;2023-06-14T04:22:56;16.20;49.10
2226;DHT22;1119;48.288;8.726;2023-06-14T04:25:44;16.20;49.30
2226;DHT22;1119;48.288;8.726;2023-06-14T04:28:33;16.20;48.50
2226;DHT22;1119;48.288;8.726;2023-06-14T04:31:25;16.30;49.70
2226;DHT22;1119;48.288;8.726;2023-06-14T04:34:15;16.20;50.10
2226;DHT22;1119;48.288;8.726;2023-06-14T04:37:08;16.30;49.80
2226;DHT22;1119;48.288;8.726;2023-06-14T04:40:00;16.30;50.70
2226;DHT22;1119;48.288;8.726;2023-06-14T04:42:53;16.20;50.80
2226;DHT22;1119;48.288;8.726;2023-06-14T04:45:41;16.20;50.00
2226;DHT22;1119;48.288;8.726;2023-06-14T04:48:33;16.20;50.50
2226;DHT22;1119;48.288;8.726;2023-06-14T04:51:21;16.30;51.00
2226;DHT22;1119;48.288;8.726;2023-06-14T04:54:15;16.30;49.90
2226;DHT22;1119;48.288;8.726;2023-06-14T04:57:06;16.40;50.30
2226;DHT22;1119;48.288;8.726;2023-06-14T04:59:55;16.50;53.40
2226;DHT22;1119;48.288;8.726;2023-06-14T05:02:44;16.50;52.60
2226;DHT22;1119;48.288;8.726;2023-06-14T05:05:35;16.50;52.90
2226;DHT22;1119;48.288;8.726;2023-06-14T05:08:22;16.50;52.60
2226;DHT22;1119;48.288;8.726;2023-06-14T05:11:10;16.40;51.70
2226;DHT22;1119;48.288;8.726;2023-06-14T05:13:59;16.40;51.40
2226;DHT22;1119;48.288;8.726;2023-06-14T05:16:47;16.40;51.50
2226;DHT22;1119;48.288;8.726;2023-06-14T05:19:35;16.30;52.10
2226;DHT22;1119;48.288;8.726;2023-06-14T05:22:24;16.40;51.50
2226;DHT22;1119;48.288;8.726;2023-06-14T05:25:12;16.40;51.20
2226;DHT22;1119;48.288;8.726;2023-06-14T05:27:59;16.40;50.70
2226;DHT22;1119;48.288;8.726;2023-06-14T05:30:47;16.40;52.20
2226;DHT22;1119;48.288;8.726;2023-06-14T05:33:35;16.30;51.50
2226;DHT22;1119;48.288;8.726;2023-06-14T05:36:23;16.30;50.90
2226;DHT22;1119;48.288;8.726;2023-06-14T05:39:12;16.30;51.70
2226;DHT22;1119;48.288;8.726;2023-06-14T05:42:00;16.40;51.60
2226;DHT22;1119;48.288;8.726;2023-06-14T05:44:48;16.40;51.50
2226;DHT22;1119;48.288;8.726;2023-06-14T05:47:36;16.40;51.90
2226;DHT22;1119;48.288;8.726;2023-06-14T05:50:23;16.40;52.00
2226;DHT22;1119;48.288;8.726;2023-06-14T05:53:11;16.40;52.40
2226;DHT22;1119;48.288;8.726;2023-06-14T05:56:00;16.40;53.50
2226;DHT22;1119;48.288;8.726;2023-06-14T05:58:47;16.50;55.00
2226;DHT22;1119;48.288;8.726;2023-06-14T06:01:35;16.50;53.20
2226;DHT22;1119;48.288;8.726;2023-06-14T06:04:23;16.60;53.00
2226;DHT22;1119;48.288;8.726;2023-06-14T06:07:33;16.60;53.10
2226;DHT22;1119;48.288;8.726;2023-06-14T06:10:21;16.80;51.90
2226;DHT22;1119;48.288;8.726;2023-06-14T06:13:10;16.90;51.90
2226;DHT22;1119;48.288;8.726;2023-06-14T06:15:58;16.90;52.30
2226;DHT22;1119;48.288;8.726;2023-06-14T06:18:46;17.00;52.90
2226;DHT22;1119;48.288;8.726;2023-06-14T06:21:34;17.10;52.60
2226;DHT22;1119;48.288;8.726;2023-06-14T06:24:22;17.10;52.30
2226;DHT22;1119;48.288;8.726;2023-06-14T06:27:09;17.20;52.50
2226;DHT22;1119;48.288;8.726;2023-06-14T06:30:00;17.30;50.90
2226;DHT22;1119;48.288;8.726;2023-06-14T06:32:47;17.40;51.40
2226;DHT22;1119;48.288;8.726;2023-06-14T06:35:35;17.60;51.60
2226;DHT22;1119;48.288;8.726;2023-06-14T06:38:23;17.60;51.40
2226;DHT22;1119;48.288;8.726;2023-06-14T06:41:11;17.80;52.00
2226;DHT22;1119;48.288;8.726;2023-06-14T06:43:58;17.90;51.60
2226;DHT22;1119;48.288;8.726;2023-06-14T06:46:50;18.30;51.90
2226;DHT22;1119;48.288;8.726;2023-06-14T06:49:38;19.10;49.70
2226;DHT22;1119;48.288;8.726;2023-06-14T06:52:26;20.10;50.80
2226;DHT22;1119;48.288;8.726;2023-06-14T06:55:15;20.90;47.10
2226;DHT22;1119;48.288;8.726;2023-06-14T06:58:04;21.60;47.10
2226;DHT22;1119;48.288;8.726;2023-06-14T07:00:52;22.10;45.90
2226;DHT22;1119;48.288;8.726;2023-06-14T07:03:41;22.40;45.40
2226;DHT22;1119;48.288;8.726;2023-06-14T07:06:29;22.40;44.30
2226;DHT22;1119;48.288;8.726;2023-06-14T07:09:17;22.50;45.10
2226;DHT22;1119;48.288;8.726;2023-06-14T07:12:06;22.80;45.10
2226;DHT22;1119;48.288;8.726;2023-06-14T07:14:54;23.00;44.60
2226;DHT22;1119;48.288;8.726;2023-06-14T07:17:42;23.30;43.30
2226;DHT22;1119;48.288;8.726;2023-06-14T07:20:31;23.10;43.10
2226;DHT22;1119;48.288;8.726;2023-06-14T07:23:19;23.30;42.40
2226;DHT22;1119;48.288;8.726;2023-06-14T07:26:07;23.20;42.10
2226;DHT22;1119;48.288;8.726;2023-06-14T07:28:55;23.00;42.30
2226;DHT22;1119;48.288;8.726;2023-06-14T07:31:42;22.80;42.60
2226;DHT22;1119;48.288;8.726;2023-06-14T07:34:30;22.90;43.40
2226;DHT22;1119;48.288;8.726;2023-06-14T07:37:20;22.90;42.50
2226;DHT22;1119;48.288;8.726;2023-06-14T07:40:09;22.80;44.20
2226;DHT22;1119;48.288;8.726;2023-06-14T07:42:56;22.90;42.80
2226;DHT22;1119;48.288;8.726;2023-06-14T07:45:44;23.10;43.20
2226;DHT22;1119;48.288;8.726;2023-06-14T07:48:32;23.30;43.60
2226;DHT22;1119;48.288;8.726;2023-06-14T07:51:19;23.70;43.50
2226;DHT22;1119;48.288;8.726;2023-06-14T07:54:10;24.00;43.30
2226;DHT22;1119;48.288;8.726;2023-06-14T07:56:57;24.50;41.20
2226;DHT22;1119;48.288;8.726;2023-06-14T07:59:46;24.50;40.90
2226;DHT22;1119;48.288;8.726;2023-06-14T08:02:34;24.80;41.80
2226;DHT22;1119;48.288;8.726;2023-06-14T08:05:21;25.00;42.00
2226;DHT22;1119;48.288;8.726;2023-06-14T08:08:09;25.20;40.10
2226;DHT22;1119;48.288;8.726;2023-06-14T08:10:58;25.10;41.00
2226;DHT22;1119;48.288;8.726;2023-06-14T08:13:46;25.00;39.70
2226;DHT22;1119;48.288;8.726;2023-06-14T08:16:33;24.60;38.70
2226;DHT22;1119;48.288;8.726;2023-06-14T08:19:21;24.50;40.70
2226;DHT22;1119;48.288;8.726;2023-06-14T08:22:09;24.20;39.80
2226;DHT22;1119;48.288;8.726;2023-06-14T08:24:57;23.70;40.10
2226;DHT22;1119;48.288;8.726;2023-06-14T08:27:46;23.80;40.30
2226;DHT22;1119;48.288;8.726;2023-06-14T08:33:22;23.90;39.90
2226;DHT22;1119;48.288;8.726;2023-06-14T08:36:10;23.70;40.50
2226;DHT22;1119;48.288;8.726;2023-06-14T08:38:58;23.60;40.70
2226;DHT22;1119;48.288;8.726;2023-06-14T08:41:46;23.40;40.20
2226;DHT22;1119;48.288;8.726;2023-06-14T08:44:36;23.20;40.40
2226;DHT22;1119;48.288;8.726;2023-06-14T08:47:25;22.90;42.10
2226;DHT22;1119;48.288;8.726;2023-06-14T08:50:15;22.90;42.10
2226;DHT22;1119;48.288;8.726;2023-06-14T08:53:03;22.90;42.20
2226;DHT22;1119;48.288;8.726;2023-06-14T08:55:51;22.90;42.20
2226;DHT22;1119;48.288;8.726;2023-06-14T08:58:40;22.80;42.20
2226;DHT22;1119;48.288;8.726;2023-06-14T09:01:33;22.90;41.90
2226;DHT22;1119;48.288;8.726;2023-06-14T09:04:22;22.60;41.50
2226;DHT22;1119;48.288;8.726;2023-06-14T09:07:10;22.50;42.40
2226;DHT22;1119;48.288;8.726;2023-06-14T09:10:10;22.50;42.50
2226;DHT22;1119;48.288;8.726;2023-06-14T09:13:01;22.50;43.30
2226;DHT22;1119;48.288;8.726;2023-06-14T09:15:50;22.50;42.30
2226;DHT22;1119;48.288;8.726;2023-06-14T09:18:40;22.50;42.70
2226;DHT22;1119;48.288;8.726;2023-06-14T09:21:34;22.50;42.70
2226;DHT22;1119;48.288;8.726;2023-06-14T09:24:24;22.70;43.90
2226;DHT22;1119;48.288;8.726;2023-06-14T09:27:15;22.80;43.10
2226;DHT22;1119;48.288;8.726;2023-06-14T09:30:03;22.90;44.80
2226;DHT22;1119;48.288;8.726;2023-06-14T09:32:51;23.30;44.10
2226;DHT22;1119;48.288;8.726;2023-06-14T09:35:40;23.40;43.40
2226;DHT22;1119;48.288;8.726;2023-06-14T09:38:28;23.60;42.80
2226;DHT22;1119;48.288;8.726;2023-06-14T09:41:16;23.60;42.30
2226;DHT22;1119;48.288;8.726;2023-06-14T09:44:05;23.60;42.70
2226;DHT22;1119;48.288;8.726;2023-06-14T09:46:53;23.50;43.00
2226;DHT22;1119;48.288;8.726;2023-06-14T09:49:43;23.40;42.70
2226;DHT22;1119;48.288;8.726;2023-06-14T09:52:32;23.30;42.90
2226;DHT22;1119;48.288;8.726;2023-06-14T09:55:20;23.40;43.50
2226;DHT22;1119;48.288;8.726;2023-06-14T09:58:10;23.50;42.20
2226;DHT22;1119;48.288;8.726;2023-06-14T10:00:59;23.50;42.60
2226;DHT22;1119;48.288;8.726;2023-06-14T10:03:48;23.50;41.60
2226;DHT22;1119;48.288;8.726;2023-06-14T10:06:39;23.70;42.00
2226;DHT22;1119;48.288;8.726;2023-06-14T10:09:30;23.70;40.30
2226;DHT22;1119;48.288;8.726;2023-06-14T10:12:17;23.60;40.10
2226;DHT22;1119;48.288;8.726;2023-06-14T10:15:09;23.50;39.70
2226;DHT22;1119;48.288;8.726;2023-06-14T10:18:01;23.50;38.70
2226;DHT22;1119;48.288;8.726;2023-06-14T10:20:58;23.50;42.10
2226;DHT22;1119;48.288;8.726;2023-06-14T10:23:56;23.60;41.80
2226;DHT22;1119;48.288;8.726;2023-06-14T10:26:53;23.70;40.80
2226;DHT22;1119;48.288;8.726;2023-06-14T10:30:03;23.80;40.80
2226;DHT22;1119;48.288;8.726;2023-06-14T10:33:07;23.80;40.00
2226;DHT22;1119;48.288;8.726;2023-06-14T10:36:07;23.80;39.50
2226;DHT22;1119;48.288;8.726;2023-06-14T10:39:00;23.80;37.80
2226;DHT22;1119;48.288;8.726;2023-06-14T10:41:55;23.70;39.10
2226;DHT22;1119;48.288;8.726;2023-06-14T10:44:45;23.70;39.90
2226;DHT22;1119;48.288;8.726;2023-06-14T10:47:34;24.00;39.40
2226;DHT22;1119;48.288;8.726;2023-06-14T10:50:27;24.00;39.30
2226;DHT22;1119;48.288;8.726;2023-06-14T10:53:22;23.90;38.80
2226;DHT22;1119;48.288;8.726;2023-06-14T10:56:23;23.90;39.10
2226;DHT22;1119;48.288;8.726;2023-06-14T10:59:16;23.90;37.90
2226;DHT22;1119;48.288;8.726;2023-06-14T11:02:24;24.10;38.60
2226;DHT22;1119;48.288;8.726;2023-06-14T11:05:24;24.10;39.50
2226;DHT22;1119;48.288;8.726;2023-06-14T11:12:03;24.10;37.90
2226;DHT22;1119;48.288;8.726;2023-06-14T11:14:53;24.30;39.40
2226;DHT22;1119;48.288;8.726;2023-06-14T11:17:50;24.40;38.20
2226;DHT22;1119;48.288;8.726;2023-06-14T11:20:40;24.70;38.00
2226;DHT22;1119;48.288;8.726;2023-06-14T11:23:27;24.80;37.30
2226;DHT22;1119;48.288;8.726;2023-06-14T11:26:15;24.70;36.70
2226;DHT22;1119;48.288;8.726;2023-06-14T11:29:03;24.70;37.00
2226;DHT22;1119;48.288;8.726;2023-06-14T11:31:52;24.60;36.40
2226;DHT22;1119;48.288;8.726;2023-06-14T11:34:39;24.60;36.30
2226;DHT22;1119;48.288;8.726;2023-06-14T11:37:28;24.60;36.20
2226;DHT22;1119;48.288;8.726;2023-06-14T11:40:16;24.70;35.30
2226;DHT22;1119;48.288;8.726;2023-06-14T11:43:03;24.80;36.20
2226;DHT22;1119;48.288;8.726;2023-06-14T11:45:51;24.80;35.30
2226;DHT22;1119;48.288;8.726;2023-06-14T11:48:42;24.80;37.20
2226;DHT22;1119;48.288;8.726;2023-06-14T11:51:32;24.80;36.70
2226;DHT22;1119;48.288;8.726;2023-06-14T11:54:20;24.70;37.80
2226;DHT22;1119;48.288;8.726;2023-06-14T11:57:08;24.80;39.20
2226;DHT22;1119;48.288;8.726;2023-06-14T11:59:56;25.00;39.60
2226;DHT22;1119;48.288;8.726;2023-06-14T12:02:52;25.00;37.60
2226;DHT22;1119;48.288;8.726;2023-06-14T12:05:43;25.10;39.10
2226;DHT22;1119;48.288;8.726;2023-06-14T12:08:34;25.00;38.00
2226;DHT22;1119;48.288;8.726;2023-06-14T12:11:33;25.00;38.30
2226;DHT22;1119;48.288;8.726;2023-06-14T12:14:28;25.30;38.00
2226;DHT22;1119;48.288;8.726;2023-06-14T12:17:17;25.60;36.20
2226;DHT22;1119;48.288;8.726;2023-06-14T12:20:06;25.70;37.30
2226;DHT22;1119;48.288;8.726;2023-06-14T12:22:59;25.80;36.10
2226;DHT22;1119;48.288;8.726;2023-06-14T12:25:49;25.60;35.10
2226;DHT22;1119;48.288;8.726;2023-06-14T12:28:40;25.20;37.30
2226;DHT22;1119;48.288;8.726;2023-06-14T12:31:28;25.20;36.50
2226;DHT22;1119;48.288;8.726;2023-06-14T12:34:15;25.00;36.60
2226;DHT22;1119;48.288;8.726;2023-06-14T12:37:03;25.00;36.80
2226;DHT22;1119;48.288;8.726;2023-06-14T12:39:54;24.80;36.70
2226;DHT22;1119;48.288;8.726;2023-06-14T12:42:41;25.10;36.90
2226;DHT22;1119;48.288;8.726;2023-06-14T12:45:29;25.10;36.60
2226;DHT22;1119;48.288;8.726;2023-06-14T12:48:17;25.20;36.50
2226;DHT22;1119;48.288;8.726;2023-06-14T12:51:04;25.40;35.20
2226;DHT22;1119;48.288;8.726;2023-06-14T12:53:52;25.50;36.60
2226;DHT22;1119;48.288;8.726;2023-06-14T12:56:42;25.50;35.80
2226;DHT22;1119;48.288;8.726;2023-06-14T12:59:31;25.60;34.70
2226;DHT22;1119;48.288;8.726;2023-06-14T13:02:19;25.60;35.90
2226;DHT22;1119;48.288;8.726;2023-06-14T13:05:08;25.50;35.50
2226;DHT22;1119;48.288;8.726;2023-06-14T13:07:56;25.40;36.50
2226;DHT22;1119;48.288;8.726;2023-06-14T13:10:43;25.30;35.00
2226;DHT22;1119;48.288;8.726;2023-06-14T13:13:32;25.20;36.30
2226;DHT22;1119;48.288;8.726;2023-06-14T13:16:20;25.40;36.90
2226;DHT22;1119;48.288;8.726;2023-06-14T13:19:08;25.50;37.00
2226;DHT22;1119;48.288;8.726;2023-06-14T13:21:56;25.40;36.20
2226;DHT22;1119;48.288;8.726;2023-06-14T13:24:43;25.30;36.10
2226;DHT22;1119;48.288;8.726;2023-06-14T13:27:31;25.50;35.90
2226;DHT22;1119;48.288;8.726;2023-06-14T13:30:20;25.50;35.80
2226;DHT22;1119;48.288;8.726;2023-06-14T13:33:08;25.40;36.20
2226;DHT22;1119;48.288;8.726;2023-06-14T13:35:55;25.00;36.20
2226;DHT22;1119;48.288;8.726;2023-06-14T13:38:43;25.00;37.70
2226;DHT22;1119;48.288;8.726;2023-06-14T13:41:31;25.10;36.90
2226;DHT22;1119;48.288;8.726;2023-06-14T13:44:20;25.20;37.70
2226;DHT22;1119;48.288;8.726;2023-06-14T13:47:09;25.20;36.90
2226;DHT22;1119;48.288;8.726;2023-06-14T13:49:57;25.20;37.60
2226;DHT22;1119;48.288;8.726;2023-06-14T13:52:45;25.20;38.00
2226;DHT22;1119;48.288;8.726;2023-06-14T13:55:32;25.10;36.70
2226;DHT22;1119;48.288;8.726;2023-06-14T13:58:20;25.00;37.20
2226;DHT22;1119;48.288;8.726;2023-06-14T14:01:08;25.00;36.10
2226;DHT22;1119;48.288;8.726;2023-06-14T14:03:57;25.00;36.70
2226;DHT22;1119;48.288;8.726;2023-06-14T14:06:46;25.30;35.90
2226;DHT22;1119;48.288;8.726;2023-06-14T14:09:35;25.70;36.80
2226;DHT22;1119;48.288;8.726;2023-06-14T14:12:23;26.00;35.40
2226;DHT22;1119;48.288;8.726;2023-06-14T14:15:11;25.90;35.20
2226;DHT22;1119;48.288;8.726;2023-06-14T14:18:00;25.90;36.20
2226;DHT22;1119;48.288;8.726;2023-06-14T14:20:50;25.50;36.50
2226;DHT22;1119;48.288;8.726;2023-06-14T14:23:38;25.20;35.00
2226;DHT22;1119;48.288;8.726;2023-06-14T14:26:26;25.20;35.70
2226;DHT22;1119;48.288;8.726;2023-06-14T14:29:14;25.50;37.60
2226;DHT22;1119;48.288;8.726;2023-06-14T14:32:02;25.50;36.80
2226;DHT22;1119;48.288;8.726;2023-06-14T14:34:50;25.30;38.40
2226;DHT22;1119;48.288;8.726;2023-06-14T14:37:39;25.00;37.60
2226;DHT22;1119;48.288;8.726;2023-06-14T14:40:26;25.00;37.50
2226;DHT22;1119;48.288;8.726;2023-06-14T14:43:14;24.90;37.40
2226;DHT22;1119;48.288;8.726;2023-06-14T14:46:01;24.70;38.00
2226;DHT22;1119;48.288;8.726;2023-06-14T14:48:50;24.60;38.10
2226;DHT22;1119;48.288;8.726;2023-06-14T14:51:37;24.70;38.20
2226;DHT22;1119;48.288;8.726;2023-06-14T14:54:27;24.90;39.00
2226;DHT22;1119;48.288;8.726;2023-06-14T14:57:15;25.00;38.00
2226;DHT22;1119;48.288;8.726;2023-06-14T15:00:03;25.00;38.20
2226;DHT22;1119;48.288;8.726;2023-06-14T15:02:53;25.10;38.50
2226;DHT22;1119;48.288;8.726;2023-06-14T15:05:40;25.00;37.40
2226;DHT22;1119;48.288;8.726;2023-06-14T15:08:28;24.90;38.40
2226;DHT22;1119;48.288;8.726;2023-06-14T15:11:17;24.90;38.50
2226;DHT22;1119;48.288;8.726;2023-06-14T15:14:05;24.70;40.50
2226;DHT22;1119;48.288;8.726;2023-06-14T15:16:52;24.70;39.00
2226;DHT22;1119;48.288;8.726;2023-06-14T15:19:40;24.60;38.30
2226;DHT22;1119;48.288;8.726;2023-06-14T15:22:28;24.50;39.10
2226;DHT22;1119;48.288;8.726;2023-06-14T15:25:15;24.50;38.90
2226;DHT22;1119;48.288;8.726;2023-06-14T15:28:04;24.60;38.20
2226;DHT22;1119;48.288;8.726;2023-06-14T15:30:53;24.50;39.00
2226;DHT22;1119;48.288;8.726;2023-06-14T15:33:40;24.30;38.20
2226;DHT22;1119;48.288;8.726;2023-06-14T15:36:28;24.40;39.90
2226;DHT22;1119;48.288;8.726;2023-06-14T15:39:16;24.40;38.30
2226;DHT22;1119;48.288;8.726;2023-06-14T15:42:04;24.40;39.50
2226;DHT22;1119;48.288;8.726;2023-06-14T15:44:53;24.20;39.50
2226;DHT22;1119;48.288;8.726;2023-06-14T15:47:41;24.00;39.40
2226;DHT22;1119;48.288;8.726;2023-06-14T15:50:29;24.00;39.50
2226;DHT22;1119;48.288;8.726;2023-06-14T15:53:18;23.90;41.00
2226;DHT22;1119;48.288;8.726;2023-06-14T15:56:06;23.80;39.40
2226;DHT22;1119;48.288;8.726;2023-06-14T15:58:54;23.70;39.30
2226;DHT22;1119;48.288;8.726;2023-06-14T16:01:43;23.60;39.70
2226;DHT22;1119;48.288;8.726;2023-06-14T16:04:30;23.70;40.00
2226;DHT22;1119;48.288;8.726;2023-06-14T16:07:18;23.70;39.60
2226;DHT22;1119;48.288;8.726;2023-06-14T16:10:06;23.80;40.20
2226;DHT22;1119;48.288;8.726;2023-06-14T16:12:55;23.80;41.00
2226;DHT22;1119;48.288;8.726;2023-06-14T16:15:42;23.80;40.20
2226;DHT22;1119;48.288;8.726;2023-06-14T16:18:31;23.60;40.70
2226;DHT22;1119;48.288;8.726;2023-06-14T16:21:19;23.60;40.90
2226;DHT22;1119;48.288;8.726;2023-06-14T16:24:07;23.40;40.30
2226;DHT22;1119;48.288;8.726;2023-06-14T16:26:55;23.40;40.90
2226;DHT22;1119;48.288;8.726;2023-06-14T16:29:43;23.30;40.20
2226;DHT22;1119;48.288;8.726;2023-06-14T16:32:32;23.20;40.60
2226;DHT22;1119;48.288;8.726;2023-06-14T16:35:21;23.30;41.00
2226;DHT22;1119;48.288;8.726;2023-06-14T16:38:08;23.20;40.90
2226;DHT22;1119;48.288;8.726;2023-06-14T16:40:56;23.10;41.00
2226;DHT22;1119;48.288;8.726;2023-06-14T16:43:45;23.10;40.70
2226;DHT22;1119;48.288;8.726;2023-06-14T16:46:34;23.10;40.70
2226;DHT22;1119;48.288;8.726;2023-06-14T16:49:22;23.20;41.90
2226;DHT22;1119;48.288;8.726;2023-06-14T16:52:11;23.20;40.80
2226;DHT22;1119;48.288;8.726;2023-06-14T16:54:59;23.00;40.30
2226;DHT22;1119;48.288;8.726;2023-06-14T16:57:46;23.00;41.30
2226;DHT22;1119;48.288;8.726;2023-06-14T17:00:34;23.00;41.30
2226;DHT22;1119;48.288;8.726;2023-06-14T17:03:22;22.90;41.00
2226;DHT22;1119;48.288;8.726;2023-06-14T17:06:10;22.80;41.40
2226;DHT22;1119;48.288;8.726;2023-06-14T17:08:59;22.70;42.10
2226;DHT22;1119;48.288;8.726;2023-06-14T17:11:46;22.80;41.00
2226;DHT22;1119;48.288;8.726;2023-06-14T17:14:34;22.70;41.40
2226;DHT22;1119;48.288;8.726;2023-06-14T17:17:22;22.60;40.90
2226;DHT22;1119;48.288;8.726;2023-06-14T17:20:11;22.50;41.40
2226;DHT22;1119;48.288;8.726;2023-06-14T17:22:58;22.40;41.20
2226;DHT22;1119;48.288;8.726;2023-06-14T17:25:49;22.50;41.50
2226;DHT22;1119;48.288;8.726;2023-06-14T17:28:36;22.50;41.80
2226;DHT22;1119;48.288;8.726;2023-06-14T17:31:25;22.50;42.10
2226;DHT22;1119;48.288;8.726;2023-06-14T17:34:12;22.60;41.70
2226;DHT22;1119;48.288;8.726;2023-06-14T17:37:01;22.60;41.10
2226;DHT22;1119;48.288;8.726;2023-06-14T17:39:49;22.60;41.90
2226;DHT22;1119;48.288;8.726;2023-06-14T17:42:38;22.60;41.60
2226;DHT22;1119;48.288;8.726;2023-06-14T17:45:26;22.50;41.50
2226;DHT22;1119;48.288;8.726;2023-06-14T17:48:14;22.50;41.60
2226;DHT22;1119;48.288;8.726;2023-06-14T17:51:02;22.50;42.40
2226;DHT22;1119;48.288;8.726;2023-06-14T17:53:50;22.50;42.60
2226;DHT22;1119;48.288;8.726;2023-06-14T17:56:39;22.50;42.80
2226;DHT22;1119;48.288;8.726;2023-06-14T17:59:28;22.50;43.50
2226;DHT22;1119;48.288;8.726;2023-06-14T18:02:15;22.40;43.50
2226;DHT22;1119;48.288;8.726;2023-06-14T18:05:04;22.30;43.60
2226;DHT22;1119;48.288;8.726;2023-06-14T18:07:52;22.10;43.70
2226;DHT22;1119;48.288;8.726;2023-06-14T18:10:40;22.00;43.80
2226;DHT22;1119;48.288;8.726;2023-06-14T18:13:28;22.00;44.20
2226;DHT22;1119;48.288;8.726;2023-06-14T18:16:17;22.00;44.70
2226;DHT22;1119;48.288;8.726;2023-06-14T18:19:06;21.90;44.40
2226;DHT22;1119;48.288;8.726;2023-06-14T18:21:55;21.90;44.40
2226;DHT22;1119;48.288;8.726;2023-06-14T18:24:43;21.80;44.90
2226;DHT22;1119;48.288;8.726;2023-06-14T18:27:31;21.90;44.60
2226;DHT22;1119;48.288;8.726;2023-06-14T18:30:19;21.80;44.90